Time;durP1;ratioP1;P1;durP2;ratioP2;P2;SDS_P1;SDS_P2;PMS_P1;PMS_P2;Temp;Humidity;BMP_temperature;BMP_pressure;BME280_temperature;BME280_humidity;BME280_pressure;Samples;Min_cycle;Max_cycle;Signal;HPM_P1;HPM_P2
2022/03/21 00:00:38;;;;;;;66.03;55.88;;;;;;;-0.49;100.00;102787.22;5063157;28;20373;-65
2022/03/21 00:03:06;;;;;;;65.80;54.55;;;;;;;-0.60;100.00;102790.63;5062493;28;20028;-66
2022/03/21 00:05:32;;;;;;;64.63;54.05;;;;;;;-0.66;100.00;102806.63;5063003;28;20025;-66
2022/03/21 00:07:57;;;;;;;66.30;55.55;;;;;;;-0.52;100.00;102794.78;5063410;28;20383;-65
2022/03/21 00:10:23;;;;;;;64.85;54.35;;;;;;;-0.47;100.00;102801.22;5062117;28;20070;-66
2022/03/21 00:12:49;;;;;;;64.50;54.50;;;;;;;-0.54;100.00;102793.72;5064678;28;20531;-66
2022/03/21 00:15:15;;;;;;;65.38;55.22;;;;;;;-0.61;100.00;102799.19;5057280;28;20029;-66
2022/03/21 00:17:41;;;;;;;65.93;54.92;;;;;;;-0.67;100.00;102793.50;5064005;28;20020;-66
2022/03/21 00:20:12;;;;;;;63.17;53.83;;;;;;;-0.67;100.00;102809.09;5061877;28;20162;-66
2022/03/21 00:22:37;;;;;;;63.75;53.92;;;;;;;-0.63;100.00;102800.78;5063712;28;20043;-66
2022/03/21 00:25:08;;;;;;;63.17;54.28;;;;;;;-0.62;100.00;102802.59;5062092;28;20475;-66
2022/03/21 00:27:35;;;;;;;64.32;54.15;;;;;;;-0.66;100.00;102810.94;5063075;28;20419;-66
2022/03/21 00:30:00;;;;;;;64.50;54.38;;;;;;;-0.63;100.00;102803.38;5062727;28;20024;-66
2022/03/21 00:32:25;;;;;;;63.95;53.58;;;;;;;-0.66;100.00;102810.94;5061711;28;20090;-67
2022/03/21 00:34:51;;;;;;;63.60;53.67;;;;;;;-0.77;100.00;102813.56;5045671;28;20033;-66
2022/03/21 00:37:16;;;;;;;63.30;53.67;;;;;;;-0.87;100.00;102816.19;5060751;28;20029;-66
2022/03/21 00:39:42;;;;;;;64.80;54.83;;;;;;;-0.95;100.00;102818.13;5063765;28;20485;-66
2022/03/21 00:42:10;;;;;;;66.03;55.00;;;;;;;-0.94;100.00;102808.69;5061650;28;20029;-66
2022/03/21 00:44:36;;;;;;;63.67;54.67;;;;;;;-0.95;100.00;102812.94;5062902;28;20040;-66
2022/03/21 00:47:01;;;;;;;64.60;54.72;;;;;;;-0.92;100.00;102817.47;5062484;28;20029;-66
2022/03/21 00:49:27;;;;;;;65.70;54.55;;;;;;;-1.03;100.00;102820.88;5061786;28;20487;-68
2022/03/21 00:51:52;;;;;;;69.40;56.22;;;;;;;-1.08;100.00;102816.22;5063610;28;20139;-67
2022/03/21 00:54:17;;;;;;;64.75;54.45;;;;;;;-1.08;100.00;102816.22;5060798;28;20063;-66
2022/03/21 00:56:42;;;;;;;60.25;51.47;;;;;;;-0.94;100.00;102819.94;5063934;28;20100;-67
2022/03/21 00:59:08;;;;;;;63.97;52.75;;;;;;;-0.93;100.00;102826.97;5061512;28;20104;-66
2022/03/21 01:01:33;;;;;;;65.72;53.88;;;;;;;-0.96;100.00;102825.78;5044426;28;20394;-67
2022/03/21 01:03:58;;;;;;;66.63;55.45;;;;;;;-1.04;100.00;102817.38;5066054;28;20499;-66
2022/03/21 01:06:24;;;;;;;66.82;55.58;;;;;;;-1.12;100.00;102821.94;5064923;28;20029;-66
2022/03/21 01:08:49;;;;;;;64.10;54.30;;;;;;;-1.14;100.00;102823.47;5068325;28;20059;-66
2022/03/21 01:11:14;;;;;;;65.35;54.78;;;;;;;-1.10;100.00;102830.75;5060300;28;20032;-67
2022/03/21 01:13:42;;;;;;;66.65;56.20;;;;;;;-1.14;100.00;102830.38;5067061;28;20100;-66
2022/03/21 01:16:08;;;;;;;64.38;55.22;;;;;;;-1.16;100.00;102831.94;5065701;28;20052;-69
2022/03/21 01:18:34;;;;;;;67.28;55.15;;;;;;;-1.19;100.00;102827.41;5066251;28;20033;-71
2022/03/21 01:20:59;;;;;;;71.75;58.20;;;;;;;-1.29;100.00;102824.81;5066073;28;20120;-68
2022/03/21 01:23:24;;;;;;;74.25;60.58;;;;;;;-1.27;100.00;102828.44;5065039;28;20032;-66
2022/03/21 01:25:50;;;;;;;74.80;63.17;;;;;;;-1.39;100.00;102830.00;5067400;28;20048;-66
2022/03/21 01:28:15;;;;;;;72.75;58.83;;;;;;;-1.43;100.00;102834.94;5064091;28;20032;-65
2022/03/21 01:30:40;;;;;;;73.93;59.10;;;;;;;-1.48;100.00;102830.16;5067345;28;20074;-67
2022/03/21 01:33:07;;;;;;;73.85;60.03;;;;;;;-1.44;100.00;102833.13;5065192;28;20499;-67
2022/03/21 01:35:32;;;;;;;72.43;57.80;;;;;;;-1.52;100.00;102826.38;5065966;28;20431;-66
2022/03/21 01:37:58;;;;;;;74.60;60.75;;;;;;;-1.50;100.00;102824.81;5066370;28;20025;-67
2022/03/21 01:40:23;;;;;;;77.22;61.58;;;;;;;-1.48;100.00;102830.16;5064197;28;20029;-67
2022/03/21 01:42:49;;;;;;;69.70;58.78;;;;;;;-1.62;100.00;102839.31;5067770;28;20103;-72
2022/03/21 01:45:16;;;;;;;72.45;58.97;;;;;;;-1.70;100.00;102836.09;5046100;28;20025;-71
2022/03/21 01:47:41;;;;;;;76.88;61.95;;;;;;;-1.75;100.00;102839.94;5066572;28;20043;-72
2022/03/21 01:50:08;;;;;;;72.82;58.88;;;;;;;-1.78;100.00;102831.91;5065078;28;20024;-70
2022/03/21 01:52:36;;;;;;;75.03;59.67;;;;;;;-1.77;100.00;102828.56;5065421;28;20467;-70
2022/03/21 01:57:47;;;;;;;69.20;55.70;;;;;;;-1.75;100.00;102821.81;5060015;28;20040;-71
2022/03/21 02:00:12;;;;;;;74.78;59.65;;;;;;;-1.75;100.00;102827.00;5066792;28;20025;-71
2022/03/21 02:02:38;;;;;;;75.95;59.78;;;;;;;-1.85;100.00;102822.72;5064646;28;20056;-71
2022/03/21 02:05:04;;;;;;;76.00;62.65;;;;;;;-1.74;100.00;102827.91;5065244;28;20052;-69
2022/03/21 02:07:30;;;;;;;72.05;58.00;;;;;;;-1.76;100.00;102830.38;5065835;28;20471;-71
2022/03/21 02:09:55;;;;;;;74.68;59.00;;;;;;;-1.74;100.00;102827.91;5064011;28;20029;-72
2022/03/21 02:12:21;;;;;;;72.68;59.10;;;;;;;-1.73;100.00;102829.72;5066656;28;20111;-71
2022/03/21 02:14:47;;;;;;;71.20;57.63;;;;;;;-1.69;100.00;102835.31;5062908;28;20025;-68
2022/03/21 02:17:18;;;;;;;73.15;58.53;;;;;;;-1.74;100.00;102838.28;5066161;28;20490;-67
2022/03/21 02:19:45;;;;;;;81.05;63.97;;;;;;;-1.86;100.00;102832.97;5063230;28;20102;-70
2022/03/21 02:22:28;;;;;;;81.35;62.10;;;;;;;-1.84;100.00;102841.75;5065987;28;20468;-67
2022/03/21 02:25:03;;;;;;;83.68;64.97;;;;;;;-1.83;100.00;102844.50;5060413;28;20484;-69
2022/03/21 02:27:30;;;;;;;80.88;63.97;;;;;;;-1.86;100.00;102846.81;5065485;28;20031;-72
2022/03/21 02:29:57;;;;;;;80.45;62.90;;;;;;;-1.85;100.00;102845.13;5063712;28;20491;-68
2022/03/21 02:32:23;;;;;;;82.53;65.13;;;;;;;-1.94;100.00;102842.66;5065931;28;20407;-66
2022/03/21 02:34:49;;;;;;;82.50;66.70;;;;;;;-1.95;100.00;102846.03;5063226;28;20078;-71
2022/03/21 02:37:17;;;;;;;86.85;69.15;;;;;;;-2.03;100.00;102836.66;5066169;28;20029;-66
2022/03/21 02:39:44;;;;;;;87.15;69.57;;;;;;;-1.96;100.00;102844.22;5045179;28;20035;-69
2022/03/21 02:42:10;;;;;;;86.38;70.35;;;;;;;-2.03;100.00;102842.75;5065549;28;20499;-71
2022/03/21 02:44:37;;;;;;;88.40;69.72;;;;;;;-1.99;100.00;102843.94;5064218;28;20102;-73
2022/03/21 02:47:04;;;;;;;88.00;68.82;;;;;;;-2.04;100.00;102842.63;5064284;28;20121;-68
2022/03/21 02:49:30;;;;;;;86.18;68.43;;;;;;;-2.05;100.00;102840.78;5064883;28;20032;-67
2022/03/21 02:51:59;;;;;;;83.97;67.13;;;;;;;-2.08;100.00;102837.94;5063250;28;20087;-66
2022/03/21 02:54:26;;;;;;;88.63;69.65;;;;;;;-2.20;100.00;102846.47;5047587;28;20044;-67
2022/03/21 02:56:52;;;;;;;86.18;70.10;;;;;;;-2.23;100.00;102837.50;5062811;28;20028;-67
2022/03/21 02:59:18;;;;;;;88.70;68.88;;;;;;;-2.28;100.00;102838.00;5066141;28;20028;-67
2022/03/21 03:01:43;;;;;;;94.60;72.65;;;;;;;-2.22;100.00;102832.47;5062615;28;20029;-66
2022/03/21 03:04:09;;;;;;;91.88;70.68;;;;;;;-2.20;100.00;102833.53;5064816;28;20494;-66
2022/03/21 03:06:34;;;;;;;92.55;72.60;;;;;;;-2.17;100.00;102838.03;5063756;28;20031;-66
2022/03/21 03:08:59;;;;;;;90.55;69.90;;;;;;;-2.22;100.00;102837.63;5063696;28;20028;-67
2022/03/21 03:11:25;;;;;;;93.32;73.80;;;;;;;-2.26;100.00;102840.72;5064965;28;20020;-68
2022/03/21 03:13:50;;;;;;;95.30;73.43;;;;;;;-2.28;100.00;102834.50;5062054;28;20119;-67
2022/03/21 03:16:16;;;;;;;95.25;73.85;;;;;;;-2.35;100.00;102834.75;5066222;28;20031;-66
2022/03/21 03:18:44;;;;;;;94.15;73.45;;;;;;;-2.42;100.00;102838.47;5062529;28;20116;-67
2022/03/21 03:21:10;;;;;;;92.47;73.63;;;;;;;-2.45;100.00;102840.78;5064373;28;20174;-66
2022/03/21 03:23:38;;;;;;;88.95;70.32;;;;;;;-2.47;100.00;102840.66;5063812;28;20028;-67
2022/03/21 03:26:04;;;;;;;83.60;66.15;;;;;;;-2.53;100.00;102844.41;5062313;28;20060;-67
2022/03/21 03:28:31;;;;;;;90.97;70.32;;;;;;;-2.53;100.00;102844.41;5064099;28;20384;-67
2022/03/21 03:30:57;;;;;;;93.30;70.88;;;;;;;-2.51;100.00;102835.97;5062689;28;20029;-66
2022/03/21 03:33:23;;;;;;;93.35;73.07;;;;;;;-2.50;100.00;102834.31;5064761;28;20478;-66
2022/03/21 03:35:49;;;;;;;90.28;70.43;;;;;;;-2.61;100.00;102838.50;5061710;28;20029;-66
2022/03/21 03:38:16;;;;;;;86.60;67.65;;;;;;;-2.64;100.00;102849.53;5065208;28;20025;-66
2022/03/21 03:40:43;;;;;;;90.25;69.05;;;;;;;-2.69;100.00;102853.38;5062103;28;20091;-67
2022/03/21 03:43:08;;;;;;;88.93;69.38;;;;;;;-2.65;100.00;102850.28;5063929;28;20051;-66
2022/03/21 03:45:33;;;;;;;82.72;65.10;;;;;;;-2.72;100.00;102854.75;5063937;28;20409;-66
2022/03/21 03:47:58;;;;;;;88.95;68.25;;;;;;;-2.68;100.00;102850.00;5062421;28;20475;-66
2022/03/21 03:50:24;;;;;;;87.28;67.45;;;;;;;-2.71;100.00;102847.16;5064442;28;20100;-66
2022/03/21 03:52:49;;;;;;;89.30;67.75;;;;;;;-2.71;100.00;102857.50;5061578;28;20053;-66
2022/03/21 03:55:17;;;;;;;91.10;70.13;;;;;;;-2.70;100.00;102861.91;5064427;28;20028;-66
2022/03/21 03:57:46;;;;;;;91.75;70.63;;;;;;;-2.63;100.00;102856.50;5062095;28;20103;-67
2022/03/21 04:00:13;;;;;;;87.60;68.43;;;;;;;-2.69;100.00;102865.41;5064137;28;20033;-66
2022/03/21 04:05:22;;;;;;;87.47;66.90;;;;;;;-2.69;100.00;102865.41;5057834;28;20511;-66
2022/03/21 04:07:49;;;;;;;91.45;71.28;;;;;;;-2.73;100.00;102871.09;5064885;28;20082;-67
2022/03/21 04:10:14;;;;;;;89.50;70.38;;;;;;;-2.69;100.00;102868.00;5061496;28;20025;-66
2022/03/21 04:12:40;;;;;;;87.90;68.38;;;;;;;-2.82;100.00;102855.63;5063450;28;20108;-66
2022/03/21 04:15:07;;;;;;;85.75;66.40;;;;;;;-2.81;100.00;102863.53;5062482;28;20025;-67
2022/03/21 04:17:35;;;;;;;90.15;70.30;;;;;;;-2.84;100.00;102873.59;5062822;28;20119;-67
2022/03/21 04:20:00;;;;;;;90.97;69.25;;;;;;;-2.88;100.00;102866.31;5063254;28;20051;-68
2022/03/21 04:22:26;;;;;;;87.07;65.93;;;;;;;-2.88;100.00;102863.75;5061534;28;20033;-72
2022/03/21 04:24:51;;;;;;;87.95;67.72;;;;;;;-2.83;100.00;102864.16;5046470;28;20086;-73
2022/03/21 04:27:17;;;;;;;85.25;67.35;;;;;;;-2.88;100.00;102866.31;5042611;28;20083;-72
2022/03/21 04:29:42;;;;;;;94.57;71.70;;;;;;;-2.88;100.00;102866.31;5063834;28;20040;-73
2022/03/21 04:32:07;;;;;;;85.88;66.75;;;;;;;-2.94;100.00;102865.78;5062167;28;20140;-73
2022/03/21 04:34:33;;;;;;;86.13;67.57;;;;;;;-2.91;100.00;102860.88;5044205;28;20037;-73
2022/03/21 04:36:58;;;;;;;89.78;70.00;;;;;;;-2.89;100.00;102859.31;5063348;28;20078;-72
2022/03/21 04:39:23;;;;;;;84.47;67.78;;;;;;;-2.90;100.00;102856.59;5061023;28;20021;-72
2022/03/21 04:41:49;;;;;;;94.60;72.28;;;;;;;-2.84;100.00;102862.31;5064118;28;20028;-72
2022/03/21 04:44:14;;;;;;;97.13;72.57;;;;;;;-2.84;100.00;102863.25;5061318;28;20107;-72
2022/03/21 04:46:39;;;;;;;86.82;68.78;;;;;;;-2.87;100.00;102862.03;5063047;28;20033;-66
2022/03/21 04:49:05;;;;;;;90.05;67.57;;;;;;;-2.91;100.00;102863.47;5062085;28;20071;-73
2022/03/21 04:51:30;;;;;;;90.50;70.65;;;;;;;-2.89;100.00;102864.50;5061865;28;20064;-71
2022/03/21 04:53:56;;;;;;;90.55;70.18;;;;;;;-2.84;100.00;102864.91;5045759;28;20064;-66
2022/03/21 04:56:22;;;;;;;90.85;67.05;;;;;;;-2.87;100.00;102864.63;5060669;28;20082;-66
2022/03/21 04:58:47;;;;;;;91.03;69.80;;;;;;;-2.87;100.00;102869.81;5056804;28;20025;-66
2022/03/21 05:01:12;;;;;;;94.72;73.22;;;;;;;-2.87;100.00;102875.91;5063483;28;20039;-66
2022/03/21 05:03:38;;;;;;;96.05;73.10;;;;;;;-2.91;100.00;102881.59;5061652;28;20460;-67
2022/03/21 05:06:05;;;;;;;93.78;73.25;;;;;;;-2.95;100.00;102876.00;5062276;28;20487;-66
2022/03/21 05:08:31;;;;;;;95.50;71.53;;;;;;;-3.00;100.00;102886.81;5062685;28;20028;-67
2022/03/21 05:10:56;;;;;;;93.72;69.88;;;;;;;-3.02;100.00;102882.28;5061222;28;20032;-66
2022/03/21 05:13:21;;;;;;;90.60;70.57;;;;;;;-2.98;100.00;102892.16;5063690;28;20395;-66
2022/03/21 05:15:47;;;;;;;93.80;71.15;;;;;;;-3.09;100.00;102891.13;5060381;28;20040;-66
2022/03/21 05:18:12;;;;;;;94.28;70.25;;;;;;;-3.07;100.00;102884.44;5063253;28;20112;-66
2022/03/21 05:20:38;;;;;;;90.38;71.00;;;;;;;-3.12;100.00;102892.56;5061510;28;20526;-66
2022/03/21 05:31:35;;;;;;;91.85;69.28;;;;;;;-3.24;100.00;102879.38;4985044;28;20046;-67
2022/03/21 05:36:44;;;;;;;93.50;73.15;;;;;;;-3.20;100.00;102887.56;4979936;28;20073;-67
2022/03/21 05:39:09;;;;;;;100.18;75.40;;;;;;;-3.21;100.00;102885.75;4981610;28;20149;-67
2022/03/21 05:41:35;;;;;;;101.95;78.00;;;;;;;-3.20;100.00;102890.16;4980652;28;20501;-68
2022/03/21 05:44:00;;;;;;;103.40;78.78;;;;;;;-3.16;100.00;102883.56;4980346;28;20517;-68
2022/03/21 05:46:26;;;;;;;103.68;79.35;;;;;;;-3.10;100.00;102893.59;4982285;28;20038;-67
2022/03/21 05:48:54;;;;;;;99.63;72.88;;;;;;;-3.16;100.00;102893.94;4979258;28;20121;-67
2022/03/21 05:51:27;;;;;;;95.68;73.13;;;;;;;-3.23;100.00;102886.34;4986596;28;20536;-67
2022/03/21 05:53:54;;;;;;;96.07;73.88;;;;;;;-3.24;100.00;102892.31;4986815;28;20061;-68
2022/03/21 05:56:21;;;;;;;96.25;73.85;;;;;;;-3.20;100.00;102884.97;4982506;28;20030;-67
2022/03/21 05:58:47;;;;;;;101.72;75.50;;;;;;;-3.09;100.00;102892.81;4995475;28;20037;-67
2022/03/21 06:01:18;;;;;;;101.80;74.05;;;;;;;-3.10;100.00;102891.94;5066322;28;20473;-67
2022/03/21 06:03:44;;;;;;;97.32;73.43;;;;;;;-3.08;100.00;102897.25;5063848;28;20495;-67
2022/03/21 06:06:10;;;;;;;100.03;75.60;;;;;;;-3.05;100.00;102894.94;5065628;28;20025;-67
2022/03/21 06:08:35;;;;;;;97.93;74.95;;;;;;;-2.94;100.00;102898.50;5065203;28;20032;-67
2022/03/21 06:11:04;;;;;;;97.78;72.03;;;;;;;-2.87;100.00;102901.81;5064250;28;20033;-68
2022/03/21 06:13:33;;;;;;;98.68;72.10;;;;;;;-2.88;100.00;102902.56;5065820;28;20082;-67
2022/03/21 06:16:03;;;;;;;94.40;71.18;;;;;;;-2.81;100.00;102909.19;5064171;28;20490;-68
2022/03/21 06:18:29;;;;;;;96.00;73.97;;;;;;;-2.67;100.00;102908.78;5066102;28;20086;-68
2022/03/21 06:20:55;;;;;;;91.35;69.53;;;;;;;-2.58;100.00;102911.28;5063316;28;20075;-67
2022/03/21 06:23:20;;;;;;;93.65;70.80;;;;;;;-2.55;100.00;102914.19;5066713;28;20024;-68
2022/03/21 06:25:46;;;;;;;98.45;75.03;;;;;;;-2.54;100.00;102910.81;5063254;28;20049;-67
2022/03/21 06:28:11;;;;;;;97.53;73.00;;;;;;;-2.50;100.00;102914.59;5065499;28;20028;-68
2022/03/21 06:30:37;;;;;;;94.90;71.70;;;;;;;-2.42;100.00;102915.28;5058865;28;20031;-69
2022/03/21 06:33:03;;;;;;;94.80;72.78;;;;;;;-2.41;100.00;102922.28;5050490;28;20747;-73
2022/03/21 06:35:28;;;;;;;92.35;70.22;;;;;;;-2.32;100.00;102912.75;5055609;28;20033;-74
2022/03/21 06:37:53;;;;;;;90.72;68.80;;;;;;;-2.24;100.00;102924.72;5025603;28;20063;-73
2022/03/21 06:40:20;;;;;;;95.85;73.30;;;;;;;-2.13;100.00;102923.97;5056896;28;20112;-73
2022/03/21 06:42:45;;;;;;;98.82;74.00;;;;;;;-2.01;100.00;102920.66;5050984;28;20074;-73
2022/03/21 06:45:11;;;;;;;92.43;71.65;;;;;;;-1.88;100.00;102925.25;5058585;28;20116;-72
2022/03/21 06:47:36;;;;;;;99.68;75.18;;;;;;;-1.80;100.00;102929.44;5055439;28;20032;-70
2022/03/21 06:50:03;;;;;;;104.53;77.28;;;;;;;-1.66;100.00;102935.81;5057417;28;20098;-70
2022/03/21 06:52:28;;;;;;;99.88;76.95;;;;;;;-1.59;100.00;102925.19;5055788;28;20395;-70
2022/03/21 06:54:54;;;;;;;97.35;74.80;;;;;;;-1.46;100.00;102928.06;5033013;28;20036;-69
2022/03/21 06:57:19;;;;;;;104.55;80.82;;;;;;;-1.34;100.00;102937.69;5058428;28;20383;-70
2022/03/21 06:59:48;;;;;;;102.63;75.93;;;;;;;-1.22;100.00;102928.38;5053378;28;20496;-71
2022/03/21 07:02:15;;;;;;;105.50;78.72;;;;;;;-1.08;100.00;102934.72;5032365;28;20025;-69
2022/03/21 07:04:41;;;;;;;108.43;84.32;;;;;;;-0.91;100.00;102934.47;5055557;28;20033;-71
2022/03/21 07:07:06;;;;;;;113.85;83.80;;;;;;;-0.77;100.00;102938.25;5052792;28;20468;-69
2022/03/21 07:09:32;;;;;;;113.40;83.40;;;;;;;-0.63;100.00;102941.06;5056880;28;20524;-69
2022/03/21 07:11:57;;;;;;;110.32;85.32;;;;;;;-0.48;100.00;102946.63;5056150;28;20093;-69
2022/03/21 07:14:22;;;;;;;116.63;87.22;;;;;;;-0.36;100.00;102940.75;5053197;28;20035;-71
2022/03/21 07:16:49;;;;;;;118.00;89.75;;;;;;;-0.16;100.00;102948.38;5060065;28;20470;-71
2022/03/21 07:19:15;;;;;;;114.63;83.53;;;;;;;-0.08;100.00;102952.50;5055892;28;20862;-71
2022/03/21 07:21:40;;;;;;;108.93;84.28;;;;;;;0.08;100.00;102959.88;5056575;28;20112;-72
2022/03/21 07:24:07;;;;;;;110.07;84.47;;;;;;;0.21;100.00;102954.88;5050425;28;20395;-69
2022/03/21 07:26:33;;;;;;;109.95;85.22;;;;;;;0.44;100.00;102955.81;5058403;28;20044;-70
2022/03/21 07:28:59;;;;;;;110.68;86.88;;;;;;;0.63;100.00;102952.94;5053991;28;20033;-72
2022/03/21 07:31:24;;;;;;;114.90;87.53;;;;;;;0.83;100.00;102954.47;5055638;28;20024;-72
2022/03/21 07:33:49;;;;;;;108.22;86.50;;;;;;;1.00;100.00;102947.97;5053805;28;20044;-72
2022/03/21 07:36:15;;;;;;;108.05;82.25;;;;;;;1.19;100.00;102947.69;5056542;28;20495;-70
2022/03/21 07:38:40;;;;;;;106.50;82.13;;;;;;;1.36;100.00;102955.09;5037001;28;20029;-69
2022/03/21 07:41:07;;;;;;;103.30;81.30;;;;;;;1.63;100.00;102955.38;5054075;28;20152;-70
2022/03/21 07:43:35;;;;;;;104.40;81.10;;;;;;;1.90;100.00;102950.34;5050590;28;20036;-71
2022/03/21 07:48:45;;;;;;;91.45;72.00;;;;;;;2.43;100.00;102953.34;5054827;28;20055;-68
2022/03/21 07:51:11;;;;;;;89.70;70.47;;;;;;;2.70;100.00;102944.72;5053063;28;20407;-71
2022/03/21 07:53:36;;;;;;;86.95;69.07;;;;;;;3.01;100.00;102955.59;5059487;28;20063;-68
2022/03/21 07:56:02;;;;;;;82.03;66.28;;;;;;;3.21;100.00;102956.06;5055479;28;20041;-70
2022/03/21 07:58:28;;;;;;;79.03;64.80;;;;;;;3.46;100.00;102946.44;5054536;28;20055;-69
2022/03/21 08:00:53;;;;;;;76.70;62.63;;;;;;;3.68;100.00;102955.72;5056247;28;20032;-69
2022/03/21 08:03:19;;;;;;;74.30;57.88;;;;;;;3.82;100.00;102957.53;5049643;28;20068;-68
2022/03/21 08:05:45;;;;;;;72.97;56.63;;;;;;;4.09;100.00;102954.00;5055511;28;20017;-69
2022/03/21 08:08:10;;;;;;;65.25;53.28;;;;;;;4.32;100.00;102951.13;5054604;28;20036;-69
2022/03/21 08:10:36;;;;;;;64.43;52.17;;;;;;;4.59;100.00;102951.06;5053249;28;20035;-70
2022/03/21 08:13:01;;;;;;;64.15;52.20;;;;;;;4.77;100.00;102953.91;5029492;28;20039;-69
2022/03/21 08:15:27;;;;;;;61.95;50.33;;;;;;;4.94;100.00;102961.94;5055999;28;20054;-69
2022/03/21 08:17:59;;;;;;;63.85;50.28;;;;;;;5.18;100.00;102968.63;5055732;28;20021;-69
2022/03/21 08:20:27;;;;;;;60.42;46.60;;;;;;;5.42;100.00;102968.31;5054390;28;20025;-68
2022/03/21 08:22:53;;;;;;;56.95;45.70;;;;;;;5.78;100.00;102959.88;5052534;28;20521;-68
2022/03/21 08:25:22;;;;;;;55.05;42.22;;;;;;;6.17;100.00;102963.00;5051785;28;20053;-67
2022/03/21 08:27:48;;;;;;;48.83;38.75;;;;;;;6.50;100.00;102956.06;5053021;28;20029;-68
2022/03/21 08:30:15;;;;;;;49.38;38.00;;;;;;;6.95;100.00;102964.63;5052145;28;20086;-66
2022/03/21 08:32:42;;;;;;;45.13;33.83;;;;;;;7.32;100.00;102955.13;5053251;28;20033;-67
2022/03/21 08:35:08;;;;;;;46.22;34.92;;;;;;;7.56;100.00;102960.75;5045399;28;20028;-66
2022/03/21 08:37:33;;;;;;;46.15;32.65;;;;;;;7.84;100.00;102956.84;5055947;28;20025;-65
2022/03/21 08:39:58;;;;;;;44.08;31.80;;;;;;;8.04;100.00;102955.19;5051079;28;20032;-66
2022/03/21 08:42:24;;;;;;;41.30;28.13;;;;;;;8.33;100.00;102958.28;5055061;28;20108;-65
2022/03/21 08:44:49;;;;;;;40.22;29.55;;;;;;;8.52;100.00;102954.84;5053594;28;20122;-66
2022/03/21 08:47:14;;;;;;;37.58;24.70;;;;;;;8.66;100.00;102956.34;5051892;28;20017;-67
2022/03/21 08:49:40;;;;;;;37.42;24.48;;;;;;;8.61;100.00;102960.53;5050029;28;20036;-67
2022/03/21 08:52:08;;;;;;;40.33;25.80;;;;;;;8.84;100.00;102956.31;5050055;28;20033;-67
2022/03/21 08:54:34;;;;;;;37.05;24.42;;;;;;;9.06;100.00;102944.06;5052673;28;20044;-68
2022/03/21 08:56:59;;;;;;;35.33;24.58;;;;;;;9.66;100.00;102949.25;5054164;28;20025;-68
2022/03/21 08:59:25;;;;;;;36.65;24.10;;;;;;;10.17;100.00;102950.44;5061898;28;20029;-68
2022/03/21 09:01:51;;;;;;;35.10;22.35;;;;;;;10.56;100.00;102952.84;5063414;28;20050;-68
2022/03/21 09:04:17;;;;;;;36.58;22.40;;;;;;;10.64;95.61;102947.00;5022794;28;20057;-68
2022/03/21 09:06:43;;;;;;;35.13;21.05;;;;;;;10.81;94.44;102950.25;5063925;28;20415;-68
2022/03/21 09:09:09;;;;;;;32.80;21.20;;;;;;;11.00;93.13;102956.22;5060908;28;20040;-68
2022/03/21 09:11:35;;;;;;;34.75;22.05;;;;;;;11.49;90.16;102962.34;5062942;28;20021;-69
2022/03/21 09:14:00;;;;;;;33.40;21.48;;;;;;;11.99;87.04;102957.84;5061707;28;20121;-69
2022/03/21 09:16:25;;;;;;;33.50;20.92;;;;;;;12.68;82.37;102952.84;5061697;28;20535;-66
2022/03/21 09:18:51;;;;;;;34.80;21.55;;;;;;;13.00;77.99;102960.84;5063074;28;20070;-67
2022/03/21 09:21:16;;;;;;;34.38;21.52;;;;;;;13.37;75.95;102959.22;5060113;28;20029;-67
2022/03/21 09:23:41;;;;;;;35.97;21.65;;;;;;;13.68;73.49;102960.00;5063984;28;20025;-67
2022/03/21 09:26:11;;;;;;;32.85;20.65;;;;;;;14.08;72.98;102953.91;5063691;28;20049;-65
2022/03/21 09:28:40;;;;;;;35.05;21.48;;;;;;;14.32;70.75;102951.75;5067317;28;20375;-64
2022/03/21 09:31:07;;;;;;;32.75;21.27;;;;;;;14.71;67.26;102945.50;5064990;28;20115;-64
2022/03/21 09:33:33;;;;;;;33.17;20.98;;;;;;;15.14;65.48;102951.69;5061206;28;20021;-65
2022/03/21 09:35:59;;;;;;;33.13;21.65;;;;;;;15.55;62.01;102940.84;5054734;28;20029;-65
2022/03/21 09:38:24;;;;;;;33.50;20.55;;;;;;;15.93;60.71;102943.28;5036555;28;20032;-69
2022/03/21 09:40:50;;;;;;;31.60;20.65;;;;;;;16.21;54.47;102935.69;5057077;28;20033;-66
2022/03/21 09:43:15;;;;;;;32.00;18.75;;;;;;;16.76;48.49;102934.59;5058356;28;20136;-65
2022/03/21 09:45:41;;;;;;;31.23;18.90;;;;;;;16.90;43.90;102936.56;5056815;28;20112;-65
2022/03/21 09:48:08;;;;;;;31.38;18.85;;;;;;;17.21;42.45;102936.91;5052872;28;20055;-66
2022/03/21 09:50:35;;;;;;;29.58;18.52;;;;;;;17.32;41.23;102928.97;5050065;28;20035;-65
2022/03/21 09:53:05;;;;;;;30.52;18.85;;;;;;;17.71;41.43;102938.22;5057657;28;20491;-68
2022/03/21 09:55:30;;;;;;;32.30;19.10;;;;;;;17.83;39.50;102933.84;5053002;28;20040;-65
2022/03/21 09:57:55;;;;;;;31.88;18.55;;;;;;;18.27;39.19;102927.91;5058875;28;20384;-66
2022/03/21 10:00:21;;;;;;;29.35;17.70;;;;;;;18.77;38.82;102931.66;5058455;28;20074;-66
2022/03/21 10:02:47;;;;;;;30.13;17.75;;;;;;;19.01;36.20;102922.84;5058908;28;20025;-66
2022/03/21 10:05:32;;;;;;;30.40;17.77;;;;;;;19.45;37.30;102927.34;5055941;28;20430;-66
2022/03/21 10:08:30;;;;;;;31.17;18.20;;;;;;;19.64;36.84;102922.91;5052622;28;20025;-65
2022/03/21 10:11:04;;;;;;;30.98;16.83;;;;;;;19.61;34.30;102927.34;4960619;28;20036;-66
2022/03/21 10:13:31;;;;;;;29.63;16.60;;;;;;;20.05;32.96;102918.34;4959457;28;20162;-66
2022/03/21 10:16:14;;;;;;;30.50;16.83;;;;;;;20.47;33.76;102912.84;4961287;28;20468;-66
2022/03/21 10:18:56;;;;;;;;;;;;;;;21.55;33.76;102914.88;4958829;28;20042;-67
2022/03/21 10:21:29;;;;;;;29.35;16.83;;;;;;;21.37;30.79;102915.91;4960338;28;20379;-67
2022/03/21 10:24:06;;;;;;;29.88;16.83;;;;;;;22.26;32.24;102917.72;4960126;28;20113;-66
2022/03/21 10:26:39;;;;;;;27.75;15.75;;;;;;;22.13;29.71;102918.78;4956371;28;20130;-65
2022/03/21 10:29:10;;;;;;;29.25;16.30;;;;;;;22.16;29.63;102910.66;4961465;28;20075;-66
2022/03/21 10:31:48;;;;;;;28.20;16.33;;;;;;;22.81;29.74;102915.25;4958524;28;20039;-65
2022/03/21 10:34:18;;;;;;;28.92;15.90;;;;;;;22.95;28.44;102909.63;4960389;28;20043;-65
2022/03/21 10:37:10;;;;;;;28.65;16.27;;;;;;;22.46;30.82;102906.72;4961561;28;20032;-65
2022/03/21 10:39:39;;;;;;;29.42;16.60;;;;;;;23.30;29.32;102917.22;4959166;28;20035;-64
2022/03/21 10:42:09;;;;;;;26.88;16.10;;;;;;;23.37;27.37;102909.88;4961395;28;20039;-65
2022/03/21 10:44:36;;;;;;;28.17;17.00;;;;;;;23.56;27.49;102907.78;4962501;28;20175;-65
2022/03/21 10:47:04;;;;;;;28.98;16.95;;;;;;;22.62;28.47;102912.81;5029346;28;20037;-65
2022/03/21 10:49:46;;;;;;;29.08;17.75;;;;;;;23.06;28.86;102912.19;5054740;28;20067;-65
2022/03/21 10:52:21;;;;;;;29.05;17.35;;;;;;;23.32;28.35;102912.69;5049631;28;20425;-66
2022/03/21 10:54:49;;;;;;;27.52;16.42;;;;;;;23.83;27.65;102898.28;5065385;28;20043;-66
2022/03/21 10:57:33;;;;;;;30.52;17.00;;;;;;;24.08;28.00;102900.53;5063859;28;20031;-65
2022/03/21 11:00:18;;;;;;;29.30;17.85;;;;;;;24.79;26.15;102899.03;5059600;28;20059;-65
2022/03/21 11:02:51;;;;;;;29.35;17.35;;;;;;;25.02;26.21;102895.78;5063947;28;20375;-65
2022/03/21 11:05:17;;;;;;;30.20;17.70;;;;;;;24.78;26.00;102890.97;5065288;28;20029;-65
2022/03/21 11:07:45;;;;;;;28.30;17.27;;;;;;;25.42;25.37;102899.31;5063599;28;20052;-65
2022/03/21 11:10:11;;;;;;;30.38;17.63;;;;;;;25.57;25.27;102885.41;5064559;28;20040;-65
2022/03/21 11:12:38;;;;;;;29.38;17.20;;;;;;;25.90;25.23;102885.38;5064487;28;20028;-65
2022/03/21 11:15:09;;;;;;;31.02;17.70;;;;;;;26.42;24.44;102885.69;5044144;28;20040;-66
2022/03/21 11:17:36;;;;;;;29.50;17.55;;;;;;;26.95;23.39;102890.41;5064887;28;20406;-65
2022/03/21 11:20:06;;;;;;;30.23;18.38;;;;;;;27.34;23.45;102888.25;5062244;28;20460;-65
2022/03/21 11:22:35;;;;;;;30.10;17.63;;;;;;;27.83;23.31;102876.53;5064776;28;20106;-66